sensor_id;sensor_type;location;lat;lon;timestamp;temperature;humidity
31979;DHT22;18502;43.574;1.276;2023-08-08T00:00:10;15.60;99.90
31979;DHT22;18502;43.574;1.276;2023-08-08T00:02:36;15.60;99.90
31979;DHT22;18502;43.574;1.276;2023-08-08T00:05:02;15.50;99.90
31979;DHT22;18502;43.574;1.276;2023-08-08T00:07:28;15.40;99.90
31979;DHT22;18502;43.574;1.276;2023-08-08T00:09:56;15.30;99.90
31979;DHT22;18502;43.574;1.276;2023-08-08T00:12:21;15.30;99.90
31979;DHT22;18502;43.574;1.276;2023-08-08T00:14:47;15.40;99.90
31979;DHT22;18502;43.574;1.276;2023-08-08T00:17:13;15.30;99.90
31979;DHT22;18502;43.574;1.276;2023-08-08T00:19:39;15.10;99.90
31979;DHT22;18502;43.574;1.276;2023-08-08T00:22:04;15.00;99.90
31979;DHT22;18502;43.574;1.276;2023-08-08T00:24:30;15.00;99.90
31979;DHT22;18502;43.574;1.276;2023-08-08T00:26:56;15.10;99.90
31979;DHT22;18502;43.574;1.276;2023-08-08T00:29:21;15.10;99.90
31979;DHT22;18502;43.574;1.276;2023-08-08T00:31:47;15.00;99.90
31979;DHT22;18502;43.574;1.276;2023-08-08T00:34:13;15.00;99.90
31979;DHT22;18502;43.574;1.276;2023-08-08T00:36:38;14.80;99.90
31979;DHT22;18502;43.574;1.276;2023-08-08T00:39:04;14.80;99.90
31979;DHT22;18502;43.574;1.276;2023-08-08T00:41:29;14.80;99.90
31979;DHT22;18502;43.574;1.276;2023-08-08T00:43:55;14.80;99.90
31979;DHT22;18502;43.574;1.276;2023-08-08T00:46:21;14.80;99.90
31979;DHT22;18502;43.574;1.276;2023-08-08T00:48:47;14.80;99.90
31979;DHT22;18502;43.574;1.276;2023-08-08T00:51:13;14.70;99.90
31979;DHT22;18502;43.574;1.276;2023-08-08T00:53:39;14.70;99.90
31979;DHT22;18502;43.574;1.276;2023-08-08T00:56:05;14.80;99.90
31979;DHT22;18502;43.574;1.276;2023-08-08T00:58:31;14.60;99.90
31979;DHT22;18502;43.574;1.276;2023-08-08T01:00:56;14.60;99.90
31979;DHT22;18502;43.574;1.276;2023-08-08T01:03:25;14.60;99.90
31979;DHT22;18502;43.574;1.276;2023-08-08T01:06:06;14.70;99.90
31979;DHT22;18502;43.574;1.276;2023-08-08T01:08:48;14.60;99.90
31979;DHT22;18502;43.574;1.276;2023-08-08T01:11:17;14.60;99.90
31979;DHT22;18502;43.574;1.276;2023-08-08T01:13:43;14.60;99.90
31979;DHT22;18502;43.574;1.276;2023-08-08T01:16:10;14.50;99.90
31979;DHT22;18502;43.574;1.276;2023-08-08T01:18:37;14.40;99.90
31979;DHT22;18502;43.574;1.276;2023-08-08T01:21:03;14.50;99.90
31979;DHT22;18502;43.574;1.276;2023-08-08T01:23:44;14.40;99.90
31979;DHT22;18502;43.574;1.276;2023-08-08T01:26:11;14.40;99.90
31979;DHT22;18502;43.574;1.276;2023-08-08T01:28:38;14.30;99.90
31979;DHT22;18502;43.574;1.276;2023-08-08T01:31:04;14.30;99.90
31979;DHT22;18502;43.574;1.276;2023-08-08T01:33:29;14.20;99.90
31979;DHT22;18502;43.574;1.276;2023-08-08T01:36:24;14.20;99.90
31979;DHT22;18502;43.574;1.276;2023-08-08T01:38:55;14.20;99.90
31979;DHT22;18502;43.574;1.276;2023-08-08T01:41:25;14.10;99.90
31979;DHT22;18502;43.574;1.276;2023-08-08T01:43:52;14.20;99.90
31979;DHT22;18502;43.574;1.276;2023-08-08T01:46:18;14.10;99.90
31979;DHT22;18502;43.574;1.276;2023-08-08T01:48:45;13.90;99.90
31979;DHT22;18502;43.574;1.276;2023-08-08T01:51:12;13.80;99.90
31979;DHT22;18502;43.574;1.276;2023-08-08T01:53:37;13.80;99.90
31979;DHT22;18502;43.574;1.276;2023-08-08T01:56:03;13.80;99.90
31979;DHT22;18502;43.574;1.276;2023-08-08T01:58:29;13.80;99.90
31979;DHT22;18502;43.574;1.276;2023-08-08T02:00:54;13.70;99.90
31979;DHT22;18502;43.574;1.276;2023-08-08T02:03:20;13.60;99.90
31979;DHT22;18502;43.574;1.276;2023-08-08T02:05:45;13.50;99.90
31979;DHT22;18502;43.574;1.276;2023-08-08T02:08:11;13.60;99.90
31979;DHT22;18502;43.574;1.276;2023-08-08T02:10:38;13.50;99.90
31979;DHT22;18502;43.574;1.276;2023-08-08T02:13:04;13.50;99.90
31979;DHT22;18502;43.574;1.276;2023-08-08T02:15:29;13.50;99.90
31979;DHT22;18502;43.574;1.276;2023-08-08T02:17:55;13.40;99.90
31979;DHT22;18502;43.574;1.276;2023-08-08T02:20:21;13.40;99.90
31979;DHT22;18502;43.574;1.276;2023-08-08T02:22:47;13.40;99.90
31979;DHT22;18502;43.574;1.276;2023-08-08T02:25:12;13.30;99.90
31979;DHT22;18502;43.574;1.276;2023-08-08T02:27:38;13.30;99.90
31979;DHT22;18502;43.574;1.276;2023-08-08T02:30:04;13.30;99.90
31979;DHT22;18502;43.574;1.276;2023-08-08T02:32:30;13.20;99.90
31979;DHT22;18502;43.574;1.276;2023-08-08T02:34:55;13.10;99.90
31979;DHT22;18502;43.574;1.276;2023-08-08T02:37:21;13.20;99.90
31979;DHT22;18502;43.574;1.276;2023-08-08T02:39:47;13.10;99.90
31979;DHT22;18502;43.574;1.276;2023-08-08T02:42:12;13.00;99.90
31979;DHT22;18502;43.574;1.276;2023-08-08T02:44:38;12.90;99.90
31979;DHT22;18502;43.574;1.276;2023-08-08T02:47:04;13.00;99.90
31979;DHT22;18502;43.574;1.276;2023-08-08T02:49:29;12.90;99.90
31979;DHT22;18502;43.574;1.276;2023-08-08T02:51:55;12.90;99.90
31979;DHT22;18502;43.574;1.276;2023-08-08T02:54:20;12.90;99.90
31979;DHT22;18502;43.574;1.276;2023-08-08T02:56:46;12.70;99.90
31979;DHT22;18502;43.574;1.276;2023-08-08T02:59:12;12.70;99.90
31979;DHT22;18502;43.574;1.276;2023-08-08T03:01:37;12.60;99.90
31979;DHT22;18502;43.574;1.276;2023-08-08T03:04:05;12.60;99.90
31979;DHT22;18502;43.574;1.276;2023-08-08T03:06:31;12.70;99.90
31979;DHT22;18502;43.574;1.276;2023-08-08T03:08:57;12.60;99.90
31979;DHT22;18502;43.574;1.276;2023-08-08T03:11:23;12.70;99.90
31979;DHT22;18502;43.574;1.276;2023-08-08T03:13:48;12.60;99.90
31979;DHT22;18502;43.574;1.276;2023-08-08T03:16:14;12.60;99.90
31979;DHT22;18502;43.574;1.276;2023-08-08T03:18:40;12.50;99.90
31979;DHT22;18502;43.574;1.276;2023-08-08T03:21:06;12.50;99.90
31979;DHT22;18502;43.574;1.276;2023-08-08T03:23:31;12.50;99.90
31979;DHT22;18502;43.574;1.276;2023-08-08T03:25:57;12.50;99.90
31979;DHT22;18502;43.574;1.276;2023-08-08T03:28:23;12.40;99.90
31979;DHT22;18502;43.574;1.276;2023-08-08T03:30:48;12.30;99.90
31979;DHT22;18502;43.574;1.276;2023-08-08T03:33:14;12.20;99.90
31979;DHT22;18502;43.574;1.276;2023-08-08T03:35:40;12.10;99.90
31979;DHT22;18502;43.574;1.276;2023-08-08T03:38:05;12.00;99.90
31979;DHT22;18502;43.574;1.276;2023-08-08T03:40:31;12.00;99.90
31979;DHT22;18502;43.574;1.276;2023-08-08T03:42:57;12.00;99.90
31979;DHT22;18502;43.574;1.276;2023-08-08T03:45:23;11.90;99.90
31979;DHT22;18502;43.574;1.276;2023-08-08T03:47:49;12.00;99.90
31979;DHT22;18502;43.574;1.276;2023-08-08T03:50:15;12.10;99.90
31979;DHT22;18502;43.574;1.276;2023-08-08T03:52:40;12.00;99.90
31979;DHT22;18502;43.574;1.276;2023-08-08T03:55:06;12.00;99.90
31979;DHT22;18502;43.574;1.276;2023-08-08T03:57:32;12.00;99.90
31979;DHT22;18502;43.574;1.276;2023-08-08T03:59:58;12.10;99.90
31979;DHT22;18502;43.574;1.276;2023-08-08T04:02:24;12.00;99.90
31979;DHT22;18502;43.574;1.276;2023-08-08T04:04:50;12.10;99.90
31979;DHT22;18502;43.574;1.276;2023-08-08T04:07:16;12.10;99.90
31979;DHT22;18502;43.574;1.276;2023-08-08T04:09:42;12.00;99.90
31979;DHT22;18502;43.574;1.276;2023-08-08T04:12:08;12.00;99.90
31979;DHT22;18502;43.574;1.276;2023-08-08T04:14:33;11.90;99.90
31979;DHT22;18502;43.574;1.276;2023-08-08T04:16:59;11.80;99.90
31979;DHT22;18502;43.574;1.276;2023-08-08T04:19:25;11.60;99.90
31979;DHT22;18502;43.574;1.276;2023-08-08T04:21:50;11.40;99.90
31979;DHT22;18502;43.574;1.276;2023-08-08T04:24:16;11.30;99.90
31979;DHT22;18502;43.574;1.276;2023-08-08T04:26:42;11.30;99.90
31979;DHT22;18502;43.574;1.276;2023-08-08T04:29:07;11.20;99.90
31979;DHT22;18502;43.574;1.276;2023-08-08T04:31:33;11.20;99.90
31979;DHT22;18502;43.574;1.276;2023-08-08T04:33:59;11.20;99.90
31979;DHT22;18502;43.574;1.276;2023-08-08T04:36:27;11.20;99.90
31979;DHT22;18502;43.574;1.276;2023-08-08T04:38:53;11.10;99.90
31979;DHT22;18502;43.574;1.276;2023-08-08T04:41:19;11.10;99.90
31979;DHT22;18502;43.574;1.276;2023-08-08T04:43:45;11.10;99.90
31979;DHT22;18502;43.574;1.276;2023-08-08T04:46:10;11.20;99.90
31979;DHT22;18502;43.574;1.276;2023-08-08T04:48:37;11.20;99.90
31979;DHT22;18502;43.574;1.276;2023-08-08T04:51:06;11.30;99.90
31979;DHT22;18502;43.574;1.276;2023-08-08T04:53:32;11.50;99.90
31979;DHT22;18502;43.574;1.276;2023-08-08T04:55:58;11.50;99.90
31979;DHT22;18502;43.574;1.276;2023-08-08T04:58:23;11.60;99.90
31979;DHT22;18502;43.574;1.276;2023-08-08T05:00:49;11.60;99.90
31979;DHT22;18502;43.574;1.276;2023-08-08T05:03:16;11.60;99.90
31979;DHT22;18502;43.574;1.276;2023-08-08T05:05:42;11.60;99.90
31979;DHT22;18502;43.574;1.276;2023-08-08T05:08:10;11.50;99.90
31979;DHT22;18502;43.574;1.276;2023-08-08T05:10:36;11.50;99.90
31979;DHT22;18502;43.574;1.276;2023-08-08T05:13:02;11.40;99.90
31979;DHT22;18502;43.574;1.276;2023-08-08T05:15:28;11.50;99.90
31979;DHT22;18502;43.574;1.276;2023-08-08T05:17:53;11.60;99.90
31979;DHT22;18502;43.574;1.276;2023-08-08T05:20:20;11.50;99.90
31979;DHT22;18502;43.574;1.276;2023-08-08T05:22:47;11.30;99.90
31979;DHT22;18502;43.574;1.276;2023-08-08T05:25:12;11.30;99.90
31979;DHT22;18502;43.574;1.276;2023-08-08T05:27:38;11.20;99.90
31979;DHT22;18502;43.574;1.276;2023-08-08T05:30:04;11.30;99.90
31979;DHT22;18502;43.574;1.276;2023-08-08T05:32:30;11.40;99.90
31979;DHT22;18502;43.574;1.276;2023-08-08T05:34:56;11.40;99.90
31979;DHT22;18502;43.574;1.276;2023-08-08T05:37:26;11.40;99.90
31979;DHT22;18502;43.574;1.276;2023-08-08T05:39:53;11.50;99.90
31979;DHT22;18502;43.574;1.276;2023-08-08T05:42:18;11.50;99.90
31979;DHT22;18502;43.574;1.276;2023-08-08T05:44:44;11.60;99.90
31979;DHT22;18502;43.574;1.276;2023-08-08T05:47:10;11.60;99.90
31979;DHT22;18502;43.574;1.276;2023-08-08T05:49:36;11.70;99.90
31979;DHT22;18502;43.574;1.276;2023-08-08T05:52:02;11.70;99.90
31979;DHT22;18502;43.574;1.276;2023-08-08T05:54:27;11.80;99.90
31979;DHT22;18502;43.574;1.276;2023-08-08T05:56:54;11.80;99.90
31979;DHT22;18502;43.574;1.276;2023-08-08T05:59:19;11.90;99.90
31979;DHT22;18502;43.574;1.276;2023-08-08T06:01:45;12.10;99.90
31979;DHT22;18502;43.574;1.276;2023-08-08T06:04:12;12.30;99.90
31979;DHT22;18502;43.574;1.276;2023-08-08T06:06:38;12.40;99.90
31979;DHT22;18502;43.574;1.276;2023-08-08T06:09:04;12.60;99.90
31979;DHT22;18502;43.574;1.276;2023-08-08T06:11:29;12.70;99.90
31979;DHT22;18502;43.574;1.276;2023-08-08T06:13:55;12.90;99.90
31979;DHT22;18502;43.574;1.276;2023-08-08T06:16:21;13.00;99.90
31979;DHT22;18502;43.574;1.276;2023-08-08T06:18:47;13.10;99.90
31979;DHT22;18502;43.574;1.276;2023-08-08T06:21:13;13.20;99.90
31979;DHT22;18502;43.574;1.276;2023-08-08T06:23:39;13.30;99.90
31979;DHT22;18502;43.574;1.276;2023-08-08T06:26:05;13.40;99.90
31979;DHT22;18502;43.574;1.276;2023-08-08T06:28:30;13.50;99.90
31979;DHT22;18502;43.574;1.276;2023-08-08T06:30:58;13.60;99.90
31979;DHT22;18502;43.574;1.276;2023-08-08T06:33:24;13.70;99.90
31979;DHT22;18502;43.574;1.276;2023-08-08T06:35:49;13.80;99.90
31979;DHT22;18502;43.574;1.276;2023-08-08T06:38:15;13.90;99.90
31979;DHT22;18502;43.574;1.276;2023-08-08T06:40:41;14.00;99.90
31979;DHT22;18502;43.574;1.276;2023-08-08T06:43:07;14.30;99.90
31979;DHT22;18502;43.574;1.276;2023-08-08T06:45:32;14.80;99.90
31979;DHT22;18502;43.574;1.276;2023-08-08T06:47:58;15.10;99.90
31979;DHT22;18502;43.574;1.276;2023-08-08T06:50:24;15.10;99.90
31979;DHT22;18502;43.574;1.276;2023-08-08T06:52:50;15.20;99.90
31979;DHT22;18502;43.574;1.276;2023-08-08T06:55:16;15.40;99.90
31979;DHT22;18502;43.574;1.276;2023-08-08T06:57:42;15.50;99.90
31979;DHT22;18502;43.574;1.276;2023-08-08T07:00:10;15.80;99.90
31979;DHT22;18502;43.574;1.276;2023-08-08T07:02:38;15.90;99.90
31979;DHT22;18502;43.574;1.276;2023-08-08T07:05:04;15.90;99.90
31979;DHT22;18502;43.574;1.276;2023-08-08T07:07:30;16.00;99.90
31979;DHT22;18502;43.574;1.276;2023-08-08T07:09:58;16.20;99.90
31979;DHT22;18502;43.574;1.276;2023-08-08T07:12:24;16.50;99.90
31979;DHT22;18502;43.574;1.276;2023-08-08T07:14:50;16.70;99.90
31979;DHT22;18502;43.574;1.276;2023-08-08T07:17:15;16.80;99.90
31979;DHT22;18502;43.574;1.276;2023-08-08T07:19:41;16.90;99.90
31979;DHT22;18502;43.574;1.276;2023-08-08T07:22:07;17.00;99.90
31979;DHT22;18502;43.574;1.276;2023-08-08T07:24:34;17.10;99.90
31979;DHT22;18502;43.574;1.276;2023-08-08T07:26:59;17.20;99.90
31979;DHT22;18502;43.574;1.276;2023-08-08T07:29:25;17.30;99.90
31979;DHT22;18502;43.574;1.276;2023-08-08T07:31:54;17.30;99.90
31979;DHT22;18502;43.574;1.276;2023-08-08T07:34:20;17.40;99.90
31979;DHT22;18502;43.574;1.276;2023-08-08T07:36:46;17.50;99.90
31979;DHT22;18502;43.574;1.276;2023-08-08T07:39:12;17.80;99.90
31979;DHT22;18502;43.574;1.276;2023-08-08T07:41:38;18.00;99.90
31979;DHT22;18502;43.574;1.276;2023-08-08T07:44:05;18.10;99.90
31979;DHT22;18502;43.574;1.276;2023-08-08T07:46:31;18.10;99.90
31979;DHT22;18502;43.574;1.276;2023-08-08T07:48:57;18.20;99.90
31979;DHT22;18502;43.574;1.276;2023-08-08T07:51:25;18.50;99.90
31979;DHT22;18502;43.574;1.276;2023-08-08T07:53:50;18.60;99.90
31979;DHT22;18502;43.574;1.276;2023-08-08T07:56:16;18.80;99.90
31979;DHT22;18502;43.574;1.276;2023-08-08T07:58:42;18.90;99.90
31979;DHT22;18502;43.574;1.276;2023-08-08T08:01:07;19.10;99.90
31979;DHT22;18502;43.574;1.276;2023-08-08T08:03:33;19.20;99.90
31979;DHT22;18502;43.574;1.276;2023-08-08T08:05:59;19.30;99.90
31979;DHT22;18502;43.574;1.276;2023-08-08T08:08:25;19.40;99.90
31979;DHT22;18502;43.574;1.276;2023-08-08T08:10:50;19.60;99.90
31979;DHT22;18502;43.574;1.276;2023-08-08T08:13:17;19.80;99.90
31979;DHT22;18502;43.574;1.276;2023-08-08T08:15:43;19.90;99.90
31979;DHT22;18502;43.574;1.276;2023-08-08T08:18:09;19.80;99.90
31979;DHT22;18502;43.574;1.276;2023-08-08T08:20:34;19.90;99.90
31979;DHT22;18502;43.574;1.276;2023-08-08T08:23:00;20.10;99.90
31979;DHT22;18502;43.574;1.276;2023-08-08T08:25:26;20.30;99.90
31979;DHT22;18502;43.574;1.276;2023-08-08T08:27:51;20.30;99.90
31979;DHT22;18502;43.574;1.276;2023-08-08T08:30:17;20.50;99.90
31979;DHT22;18502;43.574;1.276;2023-08-08T08:32:44;20.60;99.90
31979;DHT22;18502;43.574;1.276;2023-08-08T08:35:10;20.90;99.90
31979;DHT22;18502;43.574;1.276;2023-08-08T08:37:38;21.00;99.90
31979;DHT22;18502;43.574;1.276;2023-08-08T08:40:04;21.20;99.90
31979;DHT22;18502;43.574;1.276;2023-08-08T08:42:31;21.30;99.90
31979;DHT22;18502;43.574;1.276;2023-08-08T08:44:58;21.40;99.90
31979;DHT22;18502;43.574;1.276;2023-08-08T08:47:25;21.40;99.90
31979;DHT22;18502;43.574;1.276;2023-08-08T08:49:52;21.50;99.90
31979;DHT22;18502;43.574;1.276;2023-08-08T08:52:18;21.60;99.90
31979;DHT22;18502;43.574;1.276;2023-08-08T08:54:44;21.70;99.90
31979;DHT22;18502;43.574;1.276;2023-08-08T08:57:10;21.70;99.90
31979;DHT22;18502;43.574;1.276;2023-08-08T08:59:36;21.90;99.90
31979;DHT22;18502;43.574;1.276;2023-08-08T09:02:01;22.00;99.90
31979;DHT22;18502;43.574;1.276;2023-08-08T09:04:28;21.90;99.90
31979;DHT22;18502;43.574;1.276;2023-08-08T09:06:55;22.00;99.90
31979;DHT22;18502;43.574;1.276;2023-08-08T09:09:21;22.20;99.90
31979;DHT22;18502;43.574;1.276;2023-08-08T09:11:50;22.40;99.90
31979;DHT22;18502;43.574;1.276;2023-08-08T09:14:23;22.60;99.90
31979;DHT22;18502;43.574;1.276;2023-08-08T09:16:51;22.60;99.90
31979;DHT22;18502;43.574;1.276;2023-08-08T09:19:19;22.70;99.90
31979;DHT22;18502;43.574;1.276;2023-08-08T09:21:45;22.90;99.90
31979;DHT22;18502;43.574;1.276;2023-08-08T09:24:11;22.90;99.90
31979;DHT22;18502;43.574;1.276;2023-08-08T09:26:37;22.90;99.90
31979;DHT22;18502;43.574;1.276;2023-08-08T09:29:03;23.00;99.90
31979;DHT22;18502;43.574;1.276;2023-08-08T09:31:29;23.20;99.90
31979;DHT22;18502;43.574;1.276;2023-08-08T09:33:58;23.30;99.90
31979;DHT22;18502;43.574;1.276;2023-08-08T09:36:23;23.40;99.90
31979;DHT22;18502;43.574;1.276;2023-08-08T09:38:49;23.40;99.90
31979;DHT22;18502;43.574;1.276;2023-08-08T09:41:15;23.50;98.60
31979;DHT22;18502;43.574;1.276;2023-08-08T09:43:44;23.70;98.30
31979;DHT22;18502;43.574;1.276;2023-08-08T09:46:10;23.80;98.50
31979;DHT22;18502;43.574;1.276;2023-08-08T09:48:38;24.00;98.00
31979;DHT22;18502;43.574;1.276;2023-08-08T09:51:04;23.90;97.70
31979;DHT22;18502;43.574;1.276;2023-08-08T09:53:31;24.00;96.80
31979;DHT22;18502;43.574;1.276;2023-08-08T09:55:57;24.10;96.50
31979;DHT22;18502;43.574;1.276;2023-08-08T09:58:23;24.20;95.90
31979;DHT22;18502;43.574;1.276;2023-08-08T10:00:50;24.30;95.50
31979;DHT22;18502;43.574;1.276;2023-08-08T10:03:16;24.30;96.20
31979;DHT22;18502;43.574;1.276;2023-08-08T10:05:43;24.30;95.70
31979;DHT22;18502;43.574;1.276;2023-08-08T10:08:09;24.40;95.80
31979;DHT22;18502;43.574;1.276;2023-08-08T10:10:36;24.30;95.10
31979;DHT22;18502;43.574;1.276;2023-08-08T10:13:03;24.50;94.20
31979;DHT22;18502;43.574;1.276;2023-08-08T10:15:28;24.60;93.60
31979;DHT22;18502;43.574;1.276;2023-08-08T10:17:57;24.50;94.40
31979;DHT22;18502;43.574;1.276;2023-08-08T10:20:26;24.70;94.10
31979;DHT22;18502;43.574;1.276;2023-08-08T10:22:54;25.00;93.20
31979;DHT22;18502;43.574;1.276;2023-08-08T10:25:25;24.90;91.50
31979;DHT22;18502;43.574;1.276;2023-08-08T10:28:03;24.90;92.40
31979;DHT22;18502;43.574;1.276;2023-08-08T10:30:29;25.00;92.60
31979;DHT22;18502;43.574;1.276;2023-08-08T10:32:57;25.10;91.80
31979;DHT22;18502;43.574;1.276;2023-08-08T10:35:23;25.20;91.50
31979;DHT22;18502;43.574;1.276;2023-08-08T10:37:54;25.30;91.80
31979;DHT22;18502;43.574;1.276;2023-08-08T10:40:20;25.30;92.00
31979;DHT22;18502;43.574;1.276;2023-08-08T10:42:47;25.50;91.10
31979;DHT22;18502;43.574;1.276;2023-08-08T10:45:15;25.60;90.60
31979;DHT22;18502;43.574;1.276;2023-08-08T10:47:41;25.80;90.80
31979;DHT22;18502;43.574;1.276;2023-08-08T10:50:11;26.00;90.40
31979;DHT22;18502;43.574;1.276;2023-08-08T10:55:32;26.20;90.20
31979;DHT22;18502;43.574;1.276;2023-08-08T10:58:12;26.30;89.30
31979;DHT22;18502;43.574;1.276;2023-08-08T11:00:39;26.40;88.80
31979;DHT22;18502;43.574;1.276;2023-08-08T11:03:06;26.30;88.60
31979;DHT22;18502;43.574;1.276;2023-08-08T11:05:35;26.40;89.50
31979;DHT22;18502;43.574;1.276;2023-08-08T11:08:02;26.50;88.20
31979;DHT22;18502;43.574;1.276;2023-08-08T11:10:28;26.60;87.90
31979;DHT22;18502;43.574;1.276;2023-08-08T11:15:23;26.40;87.80
31979;DHT22;18502;43.574;1.276;2023-08-08T11:17:49;26.70;88.20
31979;DHT22;18502;43.574;1.276;2023-08-08T11:20:15;27.20;86.50
31979;DHT22;18502;43.574;1.276;2023-08-08T11:22:40;27.80;83.30
31979;DHT22;18502;43.574;1.276;2023-08-08T11:25:08;29.30;81.20
31979;DHT22;18502;43.574;1.276;2023-08-08T11:27:33;33.10;77.90
31979;DHT22;18502;43.574;1.276;2023-08-08T11:29:59;36.00;71.60
31979;DHT22;18502;43.574;1.276;2023-08-08T11:32:28;38.30;66.80
31979;DHT22;18502;43.574;1.276;2023-08-08T11:34:55;40.50;60.50
31979;DHT22;18502;43.574;1.276;2023-08-08T11:37:21;41.60;58.70
31979;DHT22;18502;43.574;1.276;2023-08-08T11:39:47;42.60;56.60
31979;DHT22;18502;43.574;1.276;2023-08-08T11:42:13;42.60;54.00
31979;DHT22;18502;43.574;1.276;2023-08-08T11:44:39;43.00;52.20
31979;DHT22;18502;43.574;1.276;2023-08-08T11:47:05;43.00;51.40
31979;DHT22;18502;43.574;1.276;2023-08-08T11:49:40;43.70;50.60
31979;DHT22;18502;43.574;1.276;2023-08-08T11:52:07;44.20;50.10
31979;DHT22;18502;43.574;1.276;2023-08-08T11:54:32;42.60;47.90
31979;DHT22;18502;43.574;1.276;2023-08-08T11:56:58;41.30;48.60
31979;DHT22;18502;43.574;1.276;2023-08-08T11:59:24;40.50;50.50
31979;DHT22;18502;43.574;1.276;2023-08-08T12:01:49;43.00;49.70
31979;DHT22;18502;43.574;1.276;2023-08-08T12:04:15;44.40;47.40
31979;DHT22;18502;43.574;1.276;2023-08-08T12:06:41;45.10;45.80
31979;DHT22;18502;43.574;1.276;2023-08-08T12:09:13;42.70;46.70
31979;DHT22;18502;43.574;1.276;2023-08-08T12:11:39;41.60;45.80
31979;DHT22;18502;43.574;1.276;2023-08-08T12:14:08;42.80;47.60
31979;DHT22;18502;43.574;1.276;2023-08-08T12:16:37;43.70;47.00
31979;DHT22;18502;43.574;1.276;2023-08-08T12:19:06;43.30;45.70
31979;DHT22;18502;43.574;1.276;2023-08-08T12:21:32;45.10;46.80
31979;DHT22;18502;43.574;1.276;2023-08-08T12:23:58;44.30;45.60
31979;DHT22;18502;43.574;1.276;2023-08-08T12:26:24;46.40;44.80
31979;DHT22;18502;43.574;1.276;2023-08-08T12:28:49;46.20;42.30
31979;DHT22;18502;43.574;1.276;2023-08-08T12:31:18;46.90;42.50
31979;DHT22;18502;43.574;1.276;2023-08-08T12:33:44;47.90;43.10
31979;DHT22;18502;43.574;1.276;2023-08-08T12:36:11;48.40;42.30
31979;DHT22;18502;43.574;1.276;2023-08-08T12:38:36;47.30;41.50
31979;DHT22;18502;43.574;1.276;2023-08-08T12:41:02;47.90;41.80
31979;DHT22;18502;43.574;1.276;2023-08-08T12:43:28;48.40;40.40
31979;DHT22;18502;43.574;1.276;2023-08-08T12:45:54;48.20;40.40
31979;DHT22;18502;43.574;1.276;2023-08-08T12:48:20;48.20;39.60
31979;DHT22;18502;43.574;1.276;2023-08-08T12:50:46;47.00;39.30
31979;DHT22;18502;43.574;1.276;2023-08-08T12:53:11;47.20;39.90
31979;DHT22;18502;43.574;1.276;2023-08-08T12:55:37;47.40;41.10
31979;DHT22;18502;43.574;1.276;2023-08-08T12:58:04;47.90;39.10
31979;DHT22;18502;43.574;1.276;2023-08-08T13:00:30;48.40;38.70
31979;DHT22;18502;43.574;1.276;2023-08-08T13:02:56;48.90;38.90
31979;DHT22;18502;43.574;1.276;2023-08-08T13:05:22;49.50;39.40
31979;DHT22;18502;43.574;1.276;2023-08-08T13:07:47;50.40;37.90
31979;DHT22;18502;43.574;1.276;2023-08-08T13:10:13;50.70;37.00
31979;DHT22;18502;43.574;1.276;2023-08-08T13:12:39;50.20;37.20
31979;DHT22;18502;43.574;1.276;2023-08-08T13:15:05;49.60;37.20
31979;DHT22;18502;43.574;1.276;2023-08-08T13:17:30;50.30;37.50
31979;DHT22;18502;43.574;1.276;2023-08-08T13:19:57;50.70;36.60
31979;DHT22;18502;43.574;1.276;2023-08-08T13:22:22;50.30;36.40
31979;DHT22;18502;43.574;1.276;2023-08-08T13:24:48;50.80;35.60
31979;DHT22;18502;43.574;1.276;2023-08-08T13:27:13;50.70;35.60
31979;DHT22;18502;43.574;1.276;2023-08-08T13:29:39;51.40;34.20
31979;DHT22;18502;43.574;1.276;2023-08-08T13:32:05;51.00;34.30
31979;DHT22;18502;43.574;1.276;2023-08-08T13:34:30;50.90;35.30
31979;DHT22;18502;43.574;1.276;2023-08-08T13:36:56;50.80;35.30
31979;DHT22;18502;43.574;1.276;2023-08-08T13:39:22;51.00;34.50
31979;DHT22;18502;43.574;1.276;2023-08-08T13:41:47;49.40;33.70
31979;DHT22;18502;43.574;1.276;2023-08-08T13:44:13;49.80;34.50
31979;DHT22;18502;43.574;1.276;2023-08-08T13:46:39;48.40;33.20
31979;DHT22;18502;43.574;1.276;2023-08-08T13:49:04;49.80;34.50
31979;DHT22;18502;43.574;1.276;2023-08-08T13:51:30;50.80;34.50
31979;DHT22;18502;43.574;1.276;2023-08-08T13:53:56;51.00;34.30
31979;DHT22;18502;43.574;1.276;2023-08-08T13:56:21;51.30;33.40
31979;DHT22;18502;43.574;1.276;2023-08-08T13:58:47;51.20;33.20
31979;DHT22;18502;43.574;1.276;2023-08-08T14:01:13;51.30;34.10
31979;DHT22;18502;43.574;1.276;2023-08-08T14:03:38;51.60;33.30
31979;DHT22;18502;43.574;1.276;2023-08-08T14:06:04;51.80;32.50
31979;DHT22;18502;43.574;1.276;2023-08-08T14:08:31;51.80;33.20
31979;DHT22;18502;43.574;1.276;2023-08-08T14:10:57;51.30;32.30
31979;DHT22;18502;43.574;1.276;2023-08-08T14:13:23;51.20;33.30
31979;DHT22;18502;43.574;1.276;2023-08-08T14:15:48;51.40;32.20
31979;DHT22;18502;43.574;1.276;2023-08-08T14:18:14;51.40;32.00
31979;DHT22;18502;43.574;1.276;2023-08-08T14:20:40;47.10;33.90
31979;DHT22;18502;43.574;1.276;2023-08-08T14:23:05;44.70;36.10
31979;DHT22;18502;43.574;1.276;2023-08-08T14:25:32;43.10;37.50
31979;DHT22;18502;43.574;1.276;2023-08-08T14:27:58;47.20;35.20
31979;DHT22;18502;43.574;1.276;2023-08-08T14:30:25;46.90;35.50
31979;DHT22;18502;43.574;1.276;2023-08-08T14:32:53;48.50;34.20
31979;DHT22;18502;43.574;1.276;2023-08-08T14:35:18;49.60;33.90
31979;DHT22;18502;43.574;1.276;2023-08-08T14:37:44;51.30;32.70
31979;DHT22;18502;43.574;1.276;2023-08-08T14:40:10;51.20;32.80
31979;DHT22;18502;43.574;1.276;2023-08-08T14:42:36;51.30;31.60
31979;DHT22;18502;43.574;1.276;2023-08-08T14:45:02;51.90;31.20
31979;DHT22;18502;43.574;1.276;2023-08-08T14:47:27;52.50;32.30
31979;DHT22;18502;43.574;1.276;2023-08-08T14:49:53;52.30;31.20
31979;DHT22;18502;43.574;1.276;2023-08-08T14:52:19;52.40;31.20
31979;DHT22;18502;43.574;1.276;2023-08-08T14:54:44;52.50;31.40
31979;DHT22;18502;43.574;1.276;2023-08-08T14:57:10;52.00;31.00
31979;DHT22;18502;43.574;1.276;2023-08-08T14:59:36;52.40;30.90
31979;DHT22;18502;43.574;1.276;2023-08-08T15:02:02;52.40;30.60
31979;DHT22;18502;43.574;1.276;2023-08-08T15:04:27;52.00;30.00
31979;DHT22;18502;43.574;1.276;2023-08-08T15:06:53;52.00;30.10
31979;DHT22;18502;43.574;1.276;2023-08-08T15:09:19;51.60;30.40
31979;DHT22;18502;43.574;1.276;2023-08-08T15:11:44;51.70;29.90
31979;DHT22;18502;43.574;1.276;2023-08-08T15:14:10;51.90;30.60
31979;DHT22;18502;43.574;1.276;2023-08-08T15:16:35;51.00;30.00
31979;DHT22;18502;43.574;1.276;2023-08-08T15:19:02;50.80;30.40
31979;DHT22;18502;43.574;1.276;2023-08-08T15:21:27;50.60;30.60
31979;DHT22;18502;43.574;1.276;2023-08-08T15:23:53;51.30;30.10
31979;DHT22;18502;43.574;1.276;2023-08-08T15:26:19;50.80;29.90
31979;DHT22;18502;43.574;1.276;2023-08-08T15:28:47;49.90;30.10